Time;durP1;ratioP1;P1;durP2;ratioP2;P2;SDS_P1;SDS_P2;PMS_P1;PMS_P2;Temp;Humidity;BMP_temperature;BMP_pressure;BME280_temperature;BME280_humidity;BME280_pressure;Samples;Min_cycle;Max_cycle;Signal;HPM_P1;HPM_P2
2020/12/25 00:02:19;;;;;;;184.02;11.38;;;6.90;97.60;;;;;;5098557;28;20039;-73
2020/12/25 00:04:44;;;;;;;188.63;9.32;;;6.90;97.70;;;;;;5098120;28;20289;-72
2020/12/25 00:07:12;;;;;;;271.00;10.90;;;6.90;97.70;;;;;;5080236;28;20024;-73
2020/12/25 00:09:38;;;;;;;317.15;10.23;;;6.90;97.80;;;;;;5098022;28;20111;-73
2020/12/25 00:12:07;;;;;;;191.90;9.23;;;7.00;97.70;;;;;;5098077;28;20055;-72
2020/12/25 00:14:32;;;;;;;146.90;7.38;;;7.00;97.80;;;;;;5097970;28;20028;-73
2020/12/25 00:16:59;;;;;;;172.70;8.38;;;7.00;97.90;;;;;;5098267;28;20024;-72
2020/12/25 00:19:24;;;;;;;68.75;6.15;;;7.00;97.90;;;;;;5097904;28;20028;-73
2020/12/25 00:21:50;;;;;;;152.93;8.70;;;7.00;97.80;;;;;;5079827;28;20412;-73
2020/12/25 00:24:16;;;;;;;294.98;10.98;;;7.10;97.70;;;;;;5097767;28;20035;-73
2020/12/25 00:26:41;;;;;;;168.63;8.75;;;7.00;97.40;;;;;;5097823;28;20039;-73
2020/12/25 00:29:09;;;;;;;71.35;7.38;;;7.00;97.60;;;;;;5097612;28;20408;-72
2020/12/25 00:31:38;;;;;;;8.27;6.13;;;6.90;97.70;;;;;;5097530;28;20040;-72
2020/12/25 00:34:08;;;;;;;5.82;5.18;;;7.00;97.80;;;;;;5097718;28;20020;-73
2020/12/25 00:36:36;;;;;;;6.78;6.05;;;7.00;97.60;;;;;;5097572;28;20085;-73
2020/12/25 00:39:08;;;;;;;5.68;4.63;;;7.00;97.60;;;;;;5097841;28;20024;-72
2020/12/25 00:41:34;;;;;;;3.88;3.20;;;7.00;97.20;;;;;;5097656;28;20024;-72
2020/12/25 00:44:00;;;;;;;4.93;3.58;;;6.90;96.60;;;;;;5096821;28;20034;-73
2020/12/25 00:46:28;;;;;;;7.28;4.55;;;6.90;96.50;;;;;;5097636;28;20335;-72
2020/12/25 00:48:53;;;;;;;6.18;3.35;;;6.90;96.20;;;;;;5097433;28;20370;-72
2020/12/25 00:51:21;;;;;;;2.70;2.35;;;6.70;96.90;;;;;;5096793;28;20115;-73
2020/12/25 00:53:50;;;;;;;2.60;2.40;;;6.70;97.30;;;;;;5079488;28;20032;-72
2020/12/25 00:56:16;;;;;;;2.83;2.33;;;6.70;97.30;;;;;;5097378;28;20101;-72
2020/12/25 00:58:43;;;;;;;2.58;2.25;;;6.70;97.30;;;;;;5097495;28;20359;-73
2020/12/25 01:01:10;;;;;;;3.65;2.70;;;6.80;97.20;;;;;;5097218;28;20434;-72
2020/12/25 01:03:37;;;;;;;2.83;2.53;;;6.70;97.10;;;;;;5097341;28;20034;-73
2020/12/25 01:06:13;;;;;;;3.08;2.53;;;6.70;97.30;;;;;;5097902;28;20307;-73
2020/12/25 01:08:39;;;;;;;2.92;2.65;;;6.70;97.40;;;;;;5096613;28;20036;-72
2020/12/25 01:11:08;;;;;;;2.45;2.25;;;6.70;97.50;;;;;;5097003;28;20034;-73
2020/12/25 01:13:35;;;;;;;2.50;2.30;;;6.60;97.60;;;;;;5096980;28;20412;-72
2020/12/25 01:16:02;;;;;;;2.50;2.28;;;6.60;97.70;;;;;;5097165;28;20019;-73
2020/12/25 01:18:28;;;;;;;2.60;2.40;;;6.60;97.90;;;;;;5097132;28;20301;-72
2020/12/25 01:20:54;;;;;;;3.40;2.80;;;6.60;98.00;;;;;;5096959;28;20100;-72
2020/12/25 01:23:19;;;;;;;4.40;3.72;;;6.60;98.00;;;;;;5097014;28;20308;-72
2020/12/25 01:25:45;;;;;;;3.30;3.00;;;6.70;98.00;;;;;;5078931;28;20036;-73
2020/12/25 01:28:12;;;;;;;2.72;2.30;;;6.70;98.00;;;;;;5097027;28;20059;-73
2020/12/25 01:30:38;;;;;;;2.00;1.80;;;6.70;97.90;;;;;;5096493;28;20040;-73
2020/12/25 01:33:04;;;;;;;2.55;2.08;;;6.80;97.70;;;;;;5097128;28;20042;-73
2020/12/25 01:35:32;;;;;;;2.20;1.92;;;6.80;97.70;;;;;;5096776;28;20016;-73
2020/12/25 01:37:57;;;;;;;2.05;1.85;;;6.80;97.40;;;;;;5096812;28;20039;-73
2020/12/25 01:40:23;;;;;;;5.20;3.33;;;6.80;97.30;;;;;;5096755;28;20110;-73
2020/12/25 01:42:48;;;;;;;5.80;3.92;;;6.90;97.20;;;;;;5096988;28;20038;-73
2020/12/25 01:45:14;;;;;;;6.30;3.75;;;6.90;97.00;;;;;;5096929;28;20020;-73
2020/12/25 01:47:46;;;;;;;5.72;4.30;;;6.90;96.90;;;;;;5096714;28;20042;-73
2020/12/25 01:50:15;;;;;;;3.83;3.53;;;6.90;96.90;;;;;;5096690;28;20103;-73
2020/12/25 01:52:41;;;;;;;4.78;3.63;;;6.80;96.90;;;;;;5078686;28;20051;-73
2020/12/25 01:55:09;;;;;;;4.82;3.95;;;6.90;96.60;;;;;;5097411;28;20416;-73
2020/12/25 01:57:35;;;;;;;7.55;5.28;;;6.90;95.30;;;;;;5100676;28;20087;-73
2020/12/25 02:00:04;;;;;;;3.45;1.90;;;6.90;94.10;;;;;;5100643;28;20032;-73
2020/12/25 02:02:31;;;;;;;3.72;2.50;;;7.00;93.50;;;;;;5100700;28;20396;-73
2020/12/25 02:04:57;;;;;;;11.50;4.20;;;7.10;93.70;;;;;;5100520;28;20324;-73
2020/12/25 02:07:23;;;;;;;12.80;5.05;;;7.10;94.10;;;;;;5100520;28;20028;-73
2020/12/25 02:09:48;;;;;;;16.77;6.60;;;7.10;94.40;;;;;;5100688;28;20039;-72
2020/12/25 02:12:15;;;;;;;5.97;2.97;;;7.10;93.90;;;;;;5100392;28;20351;-72
2020/12/25 02:14:40;;;;;;;6.97;2.72;;;7.10;94.20;;;;;;5100282;28;20434;-73
2020/12/25 02:17:09;;;;;;;2.95;2.08;;;7.10;94.70;;;;;;5100598;28;20032;-73
2020/12/25 02:19:39;;;;;;;2.25;1.70;;;7.10;94.70;;;;;;5082275;28;20024;-73
2020/12/25 02:22:05;;;;;;;2.90;2.28;;;7.10;94.40;;;;;;5100499;28;20031;-73
2020/12/25 02:24:31;;;;;;;4.10;2.85;;;7.10;94.80;;;;;;5100507;28;20466;-73
2020/12/25 02:26:57;;;;;;;5.82;3.72;;;7.00;95.20;;;;;;5100400;28;20050;-72
2020/12/25 02:29:23;;;;;;;3.80;2.72;;;6.90;95.80;;;;;;5100034;28;20424;-73
2020/12/25 02:31:49;;;;;;;3.78;3.42;;;6.80;96.40;;;;;;5100046;28;20059;-72
2020/12/25 02:34:14;;;;;;;24.90;4.63;;;6.80;96.70;;;;;;5099998;28;20103;-72
2020/12/25 02:36:40;;;;;;;374.42;17.35;;;6.80;97.20;;;;;;5100225;28;20051;-72
2020/12/25 02:39:06;;;;;;;8.82;7.32;;;6.80;97.30;;;;;;5099927;28;20371;-72
2020/12/25 02:41:39;;;;;;;8.98;7.18;;;6.70;97.00;;;;;;5099862;28;20024;-72
2020/12/25 02:44:05;;;;;;;8.27;6.95;;;6.80;97.10;;;;;;5100014;28;20404;-72
2020/12/25 02:46:30;;;;;;;7.75;6.07;;;6.80;96.90;;;;;;5081814;28;20036;-73
2020/12/25 02:48:56;;;;;;;6.40;5.65;;;6.70;96.20;;;;;;5099697;28;20024;-73
2020/12/25 02:51:22;;;;;;;7.88;6.30;;;6.80;96.30;;;;;;5099580;28;20031;-72
2020/12/25 02:53:48;;;;;;;7.03;6.07;;;6.80;96.40;;;;;;5099825;28;20069;-72
2020/12/25 02:56:20;;;;;;;6.82;5.43;;;6.80;95.80;;;;;;5099570;28;20032;-73
2020/12/25 02:58:52;;;;;;;7.82;6.25;;;6.70;95.40;;;;;;5099527;28;20021;-73
2020/12/25 03:01:20;;;;;;;8.95;6.53;;;6.80;94.80;;;;;;5099435;28;20416;-73
2020/12/25 03:03:46;;;;;;;7.80;6.35;;;6.80;94.40;;;;;;5099453;28;20423;-73
2020/12/25 03:06:11;;;;;;;7.90;6.43;;;6.80;94.20;;;;;;5099151;28;20031;-72
2020/12/25 03:08:37;;;;;;;8.10;6.95;;;6.80;94.20;;;;;;5098840;28;20028;-72
2020/12/25 03:11:04;;;;;;;10.48;7.25;;;6.80;94.40;;;;;;5099447;28;20032;-72
2020/12/25 03:13:30;;;;;;;9.57;7.82;;;6.70;94.40;;;;;;5099539;28;20020;-72
2020/12/25 03:15:56;;;;;;;12.25;9.25;;;6.60;94.70;;;;;;5099404;28;20297;-72
2020/12/25 03:18:21;;;;;;;12.57;9.52;;;6.60;95.20;;;;;;5099171;28;20316;-72
2020/12/25 03:20:47;;;;;;;12.55;9.65;;;6.60;95.70;;;;;;5099166;28;20032;-72
2020/12/25 03:23:13;;;;;;;11.93;9.32;;;6.60;96.00;;;;;;5081166;28;20148;-72
2020/12/25 03:25:41;;;;;;;12.00;8.88;;;6.60;96.00;;;;;;5098912;28;20093;-72
2020/12/25 03:28:07;;;;;;;12.25;8.20;;;6.50;96.10;;;;;;5081090;28;20023;-72
2020/12/25 03:30:33;;;;;;;10.23;8.45;;;6.60;96.20;;;;;;5098704;28;20139;-72
2020/12/25 03:32:58;;;;;;;13.05;8.95;;;6.60;96.30;;;;;;5098946;28;20023;-72
2020/12/25 03:35:24;;;;;;;12.88;7.97;;;6.60;96.20;;;;;;5099046;28;20048;-72
2020/12/25 03:37:50;;;;;;;12.70;8.23;;;6.60;96.70;;;;;;5099043;28;20031;-72
2020/12/25 03:40:15;;;;;;;9.73;7.40;;;6.50;96.90;;;;;;5098757;28;20048;-72
2020/12/25 03:42:43;;;;;;;9.95;7.75;;;6.50;97.10;;;;;;5098926;28;20032;-72
2020/12/25 03:45:09;;;;;;;52.83;9.60;;;6.50;97.20;;;;;;5098563;28;20104;-72
2020/12/25 03:47:34;;;;;;;19.00;8.98;;;6.50;97.10;;;;;;5098707;28;20058;-72
2020/12/25 03:50:00;;;;;;;13.60;9.55;;;6.40;97.20;;;;;;5098470;28;20032;-72
2020/12/25 03:52:25;;;;;;;11.98;9.02;;;6.40;97.30;;;;;;5098465;28;20020;-72
2020/12/25 03:54:51;;;;;;;10.52;8.70;;;6.40;97.20;;;;;;5098861;28;20032;-72
2020/12/25 03:57:17;;;;;;;18.45;8.93;;;6.40;97.30;;;;;;5098718;28;20020;-72
2020/12/25 03:59:42;;;;;;;12.07;9.07;;;6.40;97.40;;;;;;5098358;28;20035;-72
2020/12/25 04:02:08;;;;;;;13.60;9.38;;;6.30;97.70;;;;;;5080391;28;20115;-72
2020/12/25 04:04:34;;;;;;;12.13;9.32;;;6.20;98.00;;;;;;5080557;28;20032;-72
2020/12/25 04:06:59;;;;;;;12.20;9.65;;;6.20;98.00;;;;;;5080595;28;20031;-72
2020/12/25 04:09:25;;;;;;;12.45;9.38;;;6.30;98.00;;;;;;5098351;28;20024;-72
2020/12/25 04:11:51;;;;;;;9.95;8.10;;;6.20;98.00;;;;;;5098114;28;20020;-72
2020/12/25 04:14:17;;;;;;;9.10;5.45;;;6.20;98.00;;;;;;5097960;28;20077;-72
2020/12/25 04:16:43;;;;;;;5.07;3.90;;;6.20;98.00;;;;;;5098066;28;20024;-72
2020/12/25 04:19:09;;;;;;;4.65;3.45;;;6.30;98.00;;;;;;5096993;28;20103;-72
2020/12/25 04:21:41;;;;;;;4.10;2.58;;;6.40;97.90;;;;;;5097930;28;20012;-72
2020/12/25 04:24:07;;;;;;;3.00;2.50;;;6.40;97.70;;;;;;5098124;28;20093;-72
2020/12/25 04:26:33;;;;;;;170.52;13.82;;;6.50;97.50;;;;;;5097848;28;20052;-72
2020/12/25 04:28:59;;;;;;;16.25;9.32;;;6.50;97.20;;;;;;5097416;28;20092;-72
2020/12/25 04:31:28;;;;;;;12.82;9.00;;;6.40;97.10;;;;;;5097517;28;20043;-72
2020/12/25 04:33:54;;;;;;;7.97;6.72;;;6.40;97.30;;;;;;5097602;28;20030;-72
2020/12/25 04:36:20;;;;;;;7.88;5.95;;;6.30;97.70;;;;;;5097681;28;20104;-72
2020/12/25 04:38:46;;;;;;;11.68;7.15;;;6.30;97.80;;;;;;5097635;28;20024;-72
2020/12/25 04:41:12;;;;;;;8.80;7.63;;;6.30;97.90;;;;;;5097528;28;20020;-72
2020/12/25 04:43:43;;;;;;;10.23;8.75;;;6.30;98.00;;;;;;5079565;28;20028;-72
2020/12/25 04:46:09;;;;;;;56.13;10.38;;;6.40;97.80;;;;;;5097461;28;20024;-72
2020/12/25 04:48:38;;;;;;;24.50;8.00;;;6.40;97.60;;;;;;5097664;28;20030;-72
2020/12/25 04:51:05;;;;;;;150.85;12.77;;;6.40;97.50;;;;;;5097566;28;20050;-72
2020/12/25 04:53:31;;;;;;;129.00;12.68;;;6.40;97.30;;;;;;5097656;28;20105;-72
2020/12/25 04:55:58;;;;;;;49.72;9.98;;;6.40;97.30;;;;;;5079160;28;20024;-72
2020/12/25 04:58:27;;;;;;;117.90;11.57;;;6.40;97.20;;;;;;5097155;28;20024;-72
2020/12/25 05:01:07;;;;;;;11.40;8.70;;;6.40;97.20;;;;;;5079230;28;20063;-72
2020/12/25 05:03:36;;;;;;;14.25;9.77;;;6.40;97.10;;;;;;5097351;28;20032;-72
2020/12/25 05:06:11;;;;;;;95.63;11.07;;;6.30;97.40;;;;;;5097105;28;20460;-72
2020/12/25 05:08:51;;;;;;;9.77;8.48;;;6.30;97.50;;;;;;5097370;28;20423;-72
2020/12/25 05:11:19;;;;;;;10.68;6.78;;;6.30;97.60;;;;;;5079137;28;20416;-72
2020/12/25 05:13:52;;;;;;;6.65;5.80;;;6.30;97.70;;;;;;5097074;28;20316;-72
2020/12/25 05:16:22;;;;;;;6.78;5.50;;;6.30;97.70;;;;;;5079109;28;20031;-72
2020/12/25 05:18:50;;;;;;;6.22;4.70;;;6.40;97.30;;;;;;5097102;28;20156;-72
2020/12/25 05:21:20;;;;;;;4.80;4.10;;;6.40;97.00;;;;;;5096984;28;20039;-72
2020/12/25 05:23:47;;;;;;;3.58;3.17;;;6.40;97.10;;;;;;5097278;28;20039;-72
2020/12/25 05:26:15;;;;;;;4.97;2.95;;;6.40;97.00;;;;;;5096841;28;20040;-72
2020/12/25 05:28:50;;;;;;;3.63;3.10;;;6.40;97.10;;;;;;5096879;28;20366;-72
2020/12/25 05:31:17;;;;;;;3.83;3.45;;;6.40;97.10;;;;;;5078413;28;20044;-72
2020/12/25 05:33:43;;;;;;;3.53;3.03;;;6.50;97.10;;;;;;5096819;28;20111;-72
2020/12/25 05:36:11;;;;;;;4.43;3.20;;;6.50;96.80;;;;;;5096766;28;20064;-72
2020/12/25 05:38:38;;;;;;;5.00;2.95;;;6.60;96.50;;;;;;5097039;28;20024;-72
2020/12/25 05:41:05;;;;;;;3.05;2.72;;;6.60;96.40;;;;;;5096685;28;20032;-72
2020/12/25 05:43:31;;;;;;;5.15;3.70;;;6.60;96.10;;;;;;5096873;28;20074;-72
2020/12/25 05:45:57;;;;;;;4.65;3.58;;;6.60;96.30;;;;;;5078730;28;20085;-72
2020/12/25 05:48:23;;;;;;;5.00;3.55;;;6.60;95.70;;;;;;5096652;28;20024;-72
2020/12/25 05:50:50;;;;;;;3.95;3.10;;;6.50;95.50;;;;;;5096867;28;20336;-72
2020/12/25 05:53:16;;;;;;;3.80;3.08;;;6.50;95.40;;;;;;5096768;28;20027;-72
2020/12/25 05:55:42;;;;;;;3.67;3.25;;;6.50;95.50;;;;;;5096310;28;20032;-72
2020/12/25 05:58:15;;;;;;;2.85;2.63;;;6.40;95.70;;;;;;5096782;28;20020;-72
2020/12/25 06:00:42;;;;;;;5.13;3.33;;;6.30;95.80;;;;;;5078730;28;20047;-72
2020/12/25 06:03:13;;;;;;;3.45;2.80;;;6.30;95.60;;;;;;5096861;28;20043;-72
2020/12/25 06:05:44;;;;;;;4.93;3.67;;;6.20;95.80;;;;;;5096432;28;20028;-72
2020/12/25 06:08:19;;;;;;;6.95;5.28;;;6.20;96.00;;;;;;5096549;28;20028;-72
2020/12/25 06:10:46;;;;;;;5.65;4.18;;;6.10;96.70;;;;;;5096653;28;20024;-72
2020/12/25 06:13:15;;;;;;;5.90;4.43;;;6.10;96.80;;;;;;5096477;28;20316;-72
2020/12/25 06:15:50;;;;;;;5.38;4.45;;;6.00;96.30;;;;;;5096759;28;20319;-72
2020/12/25 06:18:40;;;;;;;5.88;5.00;;;6.00;96.50;;;;;;5096605;28;20021;-72
2020/12/25 06:21:16;;;;;;;6.07;3.53;;;6.00;96.50;;;;;;5096643;28;20070;-72
2020/12/25 06:23:46;;;;;;;5.72;4.38;;;6.00;96.60;;;;;;5096704;28;20058;-72
2020/12/25 06:26:12;;;;;;;6.20;4.70;;;6.00;96.90;;;;;;5096539;28;20036;-72
2020/12/25 06:28:44;;;;;;;7.22;5.05;;;6.00;96.70;;;;;;5078421;28;20080;-72
2020/12/25 06:31:32;;;;;;;6.60;5.22;;;6.00;96.60;;;;;;5095979;28;20451;-72
2020/12/25 06:34:01;;;;;;;8.32;4.45;;;6.00;96.90;;;;;;5096322;28;20024;-72
2020/12/25 06:36:34;;;;;;;7.32;5.10;;;6.00;97.10;;;;;;5096533;28;20020;-72
2020/12/25 06:39:05;;;;;;;6.47;5.03;;;6.00;96.90;;;;;;5096497;28;20028;-72
2020/12/25 06:41:35;;;;;;;5.47;4.72;;;6.00;97.00;;;;;;5096465;28;20115;-72
2020/12/25 06:44:09;;;;;;;6.38;5.25;;;5.90;97.60;;;;;;5100202;28;20415;-72
2020/12/25 06:46:35;;;;;;;6.25;5.53;;;5.90;97.60;;;;;;5081742;28;20024;-72
2020/12/25 06:49:06;;;;;;;8.07;5.50;;;5.90;97.40;;;;;;5099816;28;20020;-72
2020/12/25 06:51:42;;;;;;;6.10;4.80;;;5.90;97.60;;;;;;5099607;28;20024;-72
2020/12/25 06:54:19;;;;;;;6.07;4.80;;;5.90;97.50;;;;;;5099562;28;20548;-72
2020/12/25 06:56:47;;;;;;;6.78;5.15;;;5.90;97.50;;;;;;5099754;28;20032;-72
2020/12/25 06:59:17;;;;;;;4.35;3.33;;;5.90;97.20;;;;;;5099550;28;20319;-72
2020/12/25 07:01:46;;;;;;;4.88;3.50;;;5.90;97.10;;;;;;5099501;28;20093;-72
2020/12/25 07:04:27;;;;;;;3.67;2.80;;;5.90;96.80;;;;;;5099366;28;20452;-72
2020/12/25 07:07:00;;;;;;;6.15;3.30;;;5.90;96.80;;;;;;5099437;28;20106;-72
2020/12/25 07:09:40;;;;;;;6.68;4.47;;;5.90;96.80;;;;;;5099618;28;20411;-72
2020/12/25 07:12:08;;;;;;;7.40;5.28;;;6.00;96.80;;;;;;5081414;28;20110;-72
2020/12/25 07:14:33;;;;;;;7.63;5.47;;;6.00;97.00;;;;;;5099207;28;20036;-72
2020/12/25 07:16:59;;;;;;;6.72;5.32;;;6.00;97.20;;;;;;5099249;28;20116;-72
2020/12/25 07:19:25;;;;;;;11.68;7.47;;;6.00;97.30;;;;;;5099442;28;20024;-72
2020/12/25 07:21:52;;;;;;;8.75;6.82;;;6.00;97.60;;;;;;5099403;28;20472;-72
2020/12/25 07:24:18;;;;;;;9.27;4.95;;;6.00;97.80;;;;;;5099350;28;20127;-72
2020/12/25 07:26:46;;;;;;;5.90;4.32;;;6.00;97.90;;;;;;5099144;28;20052;-72
2020/12/25 07:29:15;;;;;;;6.25;4.60;;;6.00;98.00;;;;;;5098952;28;20048;-72
2020/12/25 07:31:52;;;;;;;5.53;4.63;;;6.10;98.00;;;;;;5098755;28;20055;-72
2020/12/25 07:34:22;;;;;;;8.50;5.22;;;6.20;98.00;;;;;;5098916;28;20026;-72
2020/12/25 07:36:50;;;;;;;6.93;5.45;;;6.20;98.00;;;;;;5099167;28;20361;-72
2020/12/25 07:39:16;;;;;;;8.25;6.53;;;6.30;98.00;;;;;;5098732;28;20020;-72
2020/12/25 07:41:45;;;;;;;8.98;6.22;;;6.40;97.80;;;;;;5098732;28;20077;-72
2020/12/25 07:44:10;;;;;;;9.90;6.72;;;6.40;97.70;;;;;;5098939;28;20308;-72
2020/12/25 07:46:38;;;;;;;13.25;8.75;;;6.50;97.60;;;;;;5098657;28;20028;-72
2020/12/25 07:49:05;;;;;;;11.38;8.98;;;6.50;97.40;;;;;;5098829;28;20024;-72
2020/12/25 07:51:33;;;;;;;12.02;9.82;;;6.60;97.20;;;;;;5098778;28;20092;-72
2020/12/25 07:54:06;;;;;;;17.60;10.57;;;6.50;96.90;;;;;;5098472;28;20070;-72
2020/12/25 07:56:36;;;;;;;23.77;9.40;;;6.60;96.90;;;;;;5098592;28;20107;-72
2020/12/25 07:59:03;;;;;;;83.90;11.73;;;6.50;95.90;;;;;;5098407;28;20070;-72
2020/12/25 08:01:33;;;;;;;149.48;13.48;;;6.60;95.70;;;;;;5098348;28;20035;-72
2020/12/25 08:04:06;;;;;;;529.78;28.05;;;6.40;95.20;;;;;;5098515;28;20050;-72
2020/12/25 08:06:33;;;;;;;633.92;30.33;;;6.40;95.50;;;;;;5098246;28;20150;-72
2020/12/25 08:09:10;;;;;;;259.88;14.10;;;6.30;96.00;;;;;;5098190;28;20024;-72
2020/12/25 08:11:40;;;;;;;418.00;19.77;;;6.30;96.10;;;;;;5098204;28;20328;-72
2020/12/25 08:14:09;;;;;;;624.20;28.55;;;6.30;96.50;;;;;;5098072;28;20411;-72
2020/12/25 08:16:40;;;;;;;56.50;6.18;;;6.20;95.90;;;;;;5098310;28;20027;-72
2020/12/25 08:19:06;;;;;;;316.55;13.13;;;6.10;96.30;;;;;;5098044;28;20020;-72
2020/12/25 08:21:34;;;;;;;6.95;5.28;;;6.10;96.70;;;;;;5079979;28;20031;-72
2020/12/25 08:24:02;;;;;;;28.30;4.63;;;6.10;96.80;;;;;;5097857;28;20038;-72
2020/12/25 08:26:30;;;;;;;11.68;5.07;;;6.00;96.80;;;;;;5097899;28;20035;-72
2020/12/25 08:28:56;;;;;;;7.03;4.88;;;6.00;96.90;;;;;;5097824;28;20034;-72
2020/12/25 08:31:21;;;;;;;7.70;5.32;;;6.00;97.00;;;;;;5097505;28;20048;-72
2020/12/25 08:33:57;;;;;;;6.00;3.95;;;6.10;96.70;;;;;;5097722;28;20020;-71
2020/12/25 08:36:28;;;;;;;5.05;2.75;;;6.00;96.30;;;;;;5097720;28;20027;-72
2020/12/25 08:38:56;;;;;;;4.63;3.05;;;6.00;96.00;;;;;;5097911;28;20028;-72
2020/12/25 08:41:28;;;;;;;4.35;3.50;;;6.00;95.90;;;;;;5097572;28;20031;-72
2020/12/25 08:44:07;;;;;;;6.63;4.40;;;6.00;96.20;;;;;;5097610;28;20420;-72
2020/12/25 08:46:38;;;;;;;7.00;4.18;;;5.90;96.00;;;;;;5079602;28;20031;-72
2020/12/25 08:49:04;;;;;;;7.45;5.63;;;5.90;96.30;;;;;;5097471;28;20074;-72
2020/12/25 08:51:37;;;;;;;6.55;4.80;;;5.90;96.60;;;;;;5097307;28;20036;-72
2020/12/25 08:54:06;;;;;;;237.77;12.32;;;6.00;96.60;;;;;;5097653;28;20307;-72
2020/12/25 08:56:35;;;;;;;808.10;37.85;;;6.00;96.70;;;;;;5079320;28;20471;-72
2020/12/25 08:59:05;;;;;;;138.75;8.02;;;6.00;96.80;;;;;;5097199;28;20028;-72
2020/12/25 09:01:39;;;;;;;2.60;2.00;;;6.00;96.70;;;;;;5097276;28;20072;-72
2020/12/25 09:04:11;;;;;;;3.08;1.80;;;5.90;96.10;;;;;;5097349;28;20024;-72
2020/12/25 09:06:37;;;;;;;2.15;1.33;;;5.80;94.80;;;;;;5078978;28;20412;-72
2020/12/25 09:09:05;;;;;;;1.10;0.80;;;5.80;95.10;;;;;;5097183;28;20054;-72
2020/12/25 09:11:31;;;;;;;1.80;1.15;;;5.80;95.20;;;;;;5097300;28;20040;-72
2020/12/25 09:13:59;;;;;;;1.00;0.65;;;5.90;95.20;;;;;;5097152;28;20420;-72
2020/12/25 09:16:34;;;;;;;1.00;0.60;;;5.90;92.80;;;;;;5097337;28;20114;-72
2020/12/25 09:19:00;;;;;;;2.33;0.93;;;5.90;94.30;;;;;;5097204;28;20035;-72
2020/12/25 09:21:33;;;;;;;1.92;1.10;;;5.90;94.60;;;;;;5097090;28;20024;-72
2020/12/25 09:23:58;;;;;;;1.27;0.90;;;5.90;93.20;;;;;;5097301;28;20035;-72
2020/12/25 09:26:26;;;;;;;1.92;1.05;;;5.90;92.00;;;;;;5097091;28;20032;-72
2020/12/25 09:28:52;;;;;;;1.17;0.60;;;5.90;90.80;;;;;;5096817;28;20035;-72
2020/12/25 09:31:18;;;;;;;1.48;1.05;;;5.90;89.80;;;;;;5096528;28;20044;-73
2020/12/25 09:33:44;;;;;;;1.13;0.82;;;5.90;91.30;;;;;;5096879;28;20020;-73
2020/12/25 09:36:12;;;;;;;1.20;0.77;;;6.00;91.60;;;;;;5078878;28;20378;-73
2020/12/25 09:38:43;;;;;;;4.90;2.17;;;6.00;92.00;;;;;;5096714;28;20021;-73
2020/12/25 09:41:08;;;;;;;5.40;3.17;;;6.10;93.70;;;;;;5096924;28;20049;-72
2020/12/25 09:43:35;;;;;;;40.88;5.03;;;6.00;94.40;;;;;;5096884;28;20020;-72
2020/12/25 09:46:01;;;;;;;836.28;38.22;;;5.80;95.30;;;;;;5096542;28;20382;-72
2020/12/25 09:48:27;;;;;;;52.17;6.45;;;5.70;96.30;;;;;;5096652;28;20103;-72
2020/12/25 09:50:53;;;;;;;4.35;3.47;;;5.70;96.80;;;;;;5096859;28;20115;-72
2020/12/25 09:53:18;;;;;;;2.00;1.13;;;5.60;96.20;;;;;;5097155;28;20044;-72
2020/12/25 09:55:44;;;;;;;1.90;1.00;;;5.50;94.90;;;;;;5096990;28;20066;-72
2020/12/25 09:58:10;;;;;;;2.00;1.23;;;5.50;92.40;;;;;;5096610;28;20027;-72
2020/12/25 10:00:39;;;;;;;2.17;1.30;;;5.50;92.60;;;;;;5096548;28;20060;-72
2020/12/25 10:03:05;;;;;;;2.30;1.70;;;5.50;93.20;;;;;;5096642;28;20020;-72
2020/12/25 10:05:30;;;;;;;2.63;1.88;;;5.50;93.60;;;;;;5078620;28;20035;-72
2020/12/25 10:07:56;;;;;;;1.95;1.40;;;5.50;94.40;;;;;;5091760;28;20506;-72
2020/12/25 10:10:24;;;;;;;1.40;0.70;;;5.50;94.40;;;;;;5085265;28;20048;-72
2020/12/25 10:12:51;;;;;;;3.00;2.00;;;5.50;92.40;;;;;;5076219;28;20023;-72
2020/12/25 10:15:16;;;;;;;2.90;2.13;;;5.60;93.70;;;;;;5076146;28;20025;-72
2020/12/25 10:17:42;;;;;;;2.33;1.92;;;5.60;94.50;;;;;;5079738;28;20096;-72
2020/12/25 10:20:08;;;;;;;1.95;1.45;;;5.50;92.70;;;;;;5080027;28;20036;-72
2020/12/25 10:22:34;;;;;;;2.20;1.30;;;5.60;92.40;;;;;;5080223;28;20031;-72
2020/12/25 10:25:06;;;;;;;1.13;0.70;;;5.50;93.10;;;;;;5080047;28;20037;-72
2020/12/25 10:27:32;;;;;;;1.23;0.70;;;5.60;90.70;;;;;;5080155;28;20090;-72
2020/12/25 10:29:58;;;;;;;1.35;0.90;;;5.60;91.30;;;;;;5079538;28;20036;-73
2020/12/25 10:32:29;;;;;;;0.98;0.70;;;5.60;91.30;;;;;;5080064;28;20546;-72
2020/12/25 10:34:58;;;;;;;1.25;0.88;;;5.60;88.80;;;;;;5080092;28;20051;-72
2020/12/25 10:37:29;;;;;;;0.57;0.30;;;5.60;92.10;;;;;;5079646;28;20025;-72
2020/12/25 10:39:55;;;;;;;0.65;0.20;;;5.60;90.10;;;;;;5079610;28;20020;-72
2020/12/25 10:42:27;;;;;;;0.20;0.20;;;5.60;90.40;;;;;;5079654;28;20069;-72
2020/12/25 10:44:53;;;;;;;0.57;0.38;;;5.60;89.10;;;;;;5079513;28;20324;-72
2020/12/25 10:47:18;;;;;;;4.95;4.05;;;5.60;91.20;;;;;;5079535;28;20025;-72
2020/12/25 10:49:46;;;;;;;3.97;3.13;;;5.40;94.60;;;;;;5079587;28;20031;-72
2020/12/25 10:52:12;;;;;;;3.28;2.50;;;5.30;95.90;;;;;;5079449;28;20016;-72
2020/12/25 10:54:39;;;;;;;1.50;0.90;;;5.30;96.40;;;;;;5079785;28;20051;-72
2020/12/25 10:57:05;;;;;;;0.70;0.45;;;5.30;95.50;;;;;;5079356;28;20051;-72
2020/12/25 10:59:31;;;;;;;0.28;0.20;;;5.30;95.10;;;;;;5079551;28;20095;-72
2020/12/25 11:01:56;;;;;;;1.75;0.40;;;5.40;91.40;;;;;;5079309;28;20059;-72
2020/12/25 11:04:22;;;;;;;0.40;0.20;;;5.50;93.50;;;;;;5079125;28;20035;-72
2020/12/25 11:06:55;;;;;;;0.20;0.10;;;5.50;93.60;;;;;;5079162;28;20028;-72
2020/12/25 11:09:20;;;;;;;0.20;0.10;;;5.50;91.00;;;;;;5079205;28;20103;-72
2020/12/25 11:11:46;;;;;;;0.50;0.20;;;5.60;87.80;;;;;;5079276;28;20104;-72
2020/12/25 11:14:12;;;;;;;0.95;0.60;;;5.70;86.90;;;;;;5079123;28;20074;-72
2020/12/25 11:16:38;;;;;;;2.97;1.90;;;5.80;88.20;;;;;;5079257;28;20025;-72
2020/12/25 11:19:07;;;;;;;3.85;2.60;;;5.70;91.90;;;;;;5078997;28;20020;-72
2020/12/25 11:21:35;;;;;;;3.65;2.83;;;5.60;94.00;;;;;;5078914;28;20056;-72
2020/12/25 11:24:02;;;;;;;4.30;3.47;;;5.50;93.70;;;;;;5078875;28;20443;-72
2020/12/25 11:26:29;;;;;;;183.93;11.73;;;5.40;94.70;;;;;;5079259;28;20469;-72
2020/12/25 11:29:03;;;;;;;6.72;3.65;;;5.30;95.70;;;;;;5060414;28;20064;-72
2020/12/25 11:31:30;;;;;;;3.72;2.63;;;5.40;96.20;;;;;;5078630;28;20048;-72
2020/12/25 11:33:55;;;;;;;3.80;2.60;;;5.40;95.20;;;;;;5078664;28;20024;-72
2020/12/25 11:36:26;;;;;;;2.95;2.10;;;5.50;94.70;;;;;;5078695;28;20028;-72
2020/12/25 11:38:55;;;;;;;2.03;1.48;;;5.50;95.00;;;;;;5078565;28;20016;-72
2020/12/25 11:41:23;;;;;;;2.53;2.08;;;5.40;95.00;;;;;;5079126;28;20329;-72
2020/12/25 11:43:50;;;;;;;2.30;1.38;;;5.30;94.90;;;;;;5078500;28;20024;-72
2020/12/25 11:46:16;;;;;;;0.85;0.50;;;5.30;93.10;;;;;;5078507;28;20036;-72
2020/12/25 11:48:50;;;;;;;0.50;0.32;;;5.20;91.90;;;;;;5078353;28;20466;-72
2020/12/25 11:51:21;;;;;;;1.10;0.52;;;5.10;91.40;;;;;;5078348;28;20025;-72
2020/12/25 11:53:49;;;;;;;0.68;0.40;;;5.00;89.60;;;;;;5078670;28;20021;-72
2020/12/25 11:56:25;;;;;;;0.40;0.20;;;4.90;87.80;;;;;;5078268;28;20025;-72
2020/12/25 11:58:51;;;;;;;;;;;4.90;89.10;;;;;;5078725;28;20017;-73
2020/12/25 12:01:16;;;;;;;0.97;0.30;;;5.00;91.10;;;;;;5078170;28;19911;-73
2020/12/25 12:03:48;;;;;;;1.75;0.60;;;5.00;91.10;;;;;;5078107;28;20320;-73
2020/12/25 12:06:26;;;;;;;0.40;0.20;;;5.00;93.20;;;;;;5078061;28;20082;-73
2020/12/25 12:08:52;;;;;;;0.80;0.30;;;4.90;87.10;;;;;;5078110;28;20070;-72
2020/12/25 12:11:20;;;;;;;0.32;0.20;;;5.00;87.30;;;;;;5077955;28;20055;-72
2020/12/25 12:13:49;;;;;;;0.20;0.10;;;5.00;90.80;;;;;;5077946;28;20104;-73
2020/12/25 12:16:21;;;;;;;0.70;0.15;;;4.90;89.40;;;;;;5078115;28;20027;-73
2020/12/25 12:18:48;;;;;;;4.25;0.45;;;4.90;90.60;;;;;;5077911;28;20017;-73
2020/12/25 12:21:13;;;;;;;0.57;0.30;;;4.80;94.00;;;;;;5077805;28;20366;-73
2020/12/25 12:23:41;;;;;;;1.05;0.50;;;4.70;90.80;;;;;;5077875;28;20024;-73
2020/12/25 12:26:11;;;;;;;0.93;0.40;;;4.70;92.40;;;;;;5077583;28;20079;-73
2020/12/25 12:28:37;;;;;;;0.63;0.40;;;4.60;93.40;;;;;;5077577;28;20020;-73
2020/12/25 12:31:03;;;;;;;0.50;0.30;;;4.60;92.30;;;;;;5077288;28;20341;-73
2020/12/25 12:33:28;;;;;;;0.40;0.30;;;4.60;91.80;;;;;;5077510;28;20130;-73
2020/12/25 12:35:54;;;;;;;0.52;0.30;;;4.50;91.60;;;;;;5077657;28;20052;-72
2020/12/25 12:38:20;;;;;;;0.22;0.20;;;4.50;90.40;;;;;;5077367;28;20025;-72
2020/12/25 12:40:45;;;;;;;0.35;0.20;;;4.50;90.10;;;;;;5076762;28;20107;-72
2020/12/25 12:43:11;;;;;;;0.30;0.15;;;4.60;89.40;;;;;;5077342;28;20028;-73
2020/12/25 12:45:36;;;;;;;0.30;0.20;;;4.60;89.30;;;;;;5077270;28;20029;-73
2020/12/25 12:48:03;;;;;;;4.30;2.33;;;4.50;93.70;;;;;;5077240;28;20020;-73
2020/12/25 12:50:29;;;;;;;1.33;1.00;;;4.50;96.00;;;;;;5077165;28;20320;-73
2020/12/25 12:52:54;;;;;;;0.65;0.30;;;4.50;93.80;;;;;;5077154;28;20033;-72
2020/12/25 12:55:20;;;;;;;1.80;1.20;;;4.50;92.10;;;;;;5077112;28;20029;-73
2020/12/25 12:57:46;;;;;;;2.38;1.85;;;4.60;94.10;;;;;;5058994;28;20030;-73